sensor_id;sensor_type;location;lat;lon;timestamp;pressure;altitude;pressure_sealevel;temperature;humidity
35435;BME280;21556;55.782;37.528;2024-03-02T00:00:21;101012.13;;;6.72;100.00
35435;BME280;21556;55.782;37.528;2024-03-02T00:02:50;101019.66;;;6.35;100.00
35435;BME280;21556;55.782;37.528;2024-03-02T00:05:18;101015.94;;;6.30;100.00
35435;BME280;21556;55.782;37.528;2024-03-02T00:07:47;101017.47;;;6.10;100.00
35435;BME280;21556;55.782;37.528;2024-03-02T00:10:22;101006.06;;;6.24;100.00
35435;BME280;21556;55.782;37.528;2024-03-02T00:12:57;101006.56;;;6.34;100.00
35435;BME280;21556;55.782;37.528;2024-03-02T00:17:56;101003.75;;;6.62;100.00
35435;BME280;21556;55.782;37.528;2024-03-02T00:20:24;101001.59;;;6.71;100.00
35435;BME280;21556;55.782;37.528;2024-03-02T00:23:02;101000.53;;;6.67;100.00
35435;BME280;21556;55.782;37.528;2024-03-02T00:25:41;100998.69;;;6.48;100.00
35435;BME280;21556;55.782;37.528;2024-03-02T00:28:17;101000.13;;;6.60;100.00
35435;BME280;21556;55.782;37.528;2024-03-02T00:30:54;101001.53;;;6.53;100.00
35435;BME280;21556;55.782;37.528;2024-03-02T00:33:23;101007.88;;;6.25;100.00
35435;BME280;21556;55.782;37.528;2024-03-02T00:35:52;101002.50;;;6.39;100.00
35435;BME280;21556;55.782;37.528;2024-03-02T00:38:20;101000.78;;;6.56;100.00
35435;BME280;21556;55.782;37.528;2024-03-02T00:40:47;100998.94;;;6.69;100.00
35435;BME280;21556;55.782;37.528;2024-03-02T00:43:43;101004.13;;;6.53;100.00
35435;BME280;21556;55.782;37.528;2024-03-02T00:46:15;100996.91;;;6.47;100.00
35435;BME280;21556;55.782;37.528;2024-03-02T00:48:48;101002.59;;;6.40;100.00
35435;BME280;21556;55.782;37.528;2024-03-02T00:51:20;100999.88;;;6.39;100.00
35435;BME280;21556;55.782;37.528;2024-03-02T00:53:47;101005.34;;;6.60;100.00
35435;BME280;21556;55.782;37.528;2024-03-02T00:56:13;101011.72;;;6.48;100.00
35435;BME280;21556;55.782;37.528;2024-03-02T00:58:40;101008.28;;;6.33;100.00
35435;BME280;21556;55.782;37.528;2024-03-02T01:01:06;101010.81;;;6.48;100.00
35435;BME280;21556;55.782;37.528;2024-03-02T01:03:34;101012.38;;;6.77;100.00
35435;BME280;21556;55.782;37.528;2024-03-02T01:06:00;101007.88;;;6.91;100.00
35435;BME280;21556;55.782;37.528;2024-03-02T01:08:26;101016.25;;;6.85;100.00
35435;BME280;21556;55.782;37.528;2024-03-02T01:10:52;101018.56;;;6.79;100.00
35435;BME280;21556;55.782;37.528;2024-03-02T01:13:18;101016.75;;;6.78;100.00
35435;BME280;21556;55.782;37.528;2024-03-02T01:15:46;101032.16;;;6.57;100.00
35435;BME280;21556;55.782;37.528;2024-03-02T01:18:12;101031.09;;;6.37;100.00
35435;BME280;21556;55.782;37.528;2024-03-02T01:20:39;101022.63;;;6.74;100.00
35435;BME280;21556;55.782;37.528;2024-03-02T01:23:04;101022.22;;;6.66;100.00
35435;BME280;21556;55.782;37.528;2024-03-02T01:25:31;101022.63;;;6.41;100.00
35435;BME280;21556;55.782;37.528;2024-03-02T01:27:57;101012.53;;;6.47;100.00
35435;BME280;21556;55.782;37.528;2024-03-02T01:30:24;101025.72;;;6.67;100.00
35435;BME280;21556;55.782;37.528;2024-03-02T01:32:50;101019.69;;;6.84;100.00
35435;BME280;21556;55.782;37.528;2024-03-02T01:35:15;101019.47;;;6.47;100.00
35435;BME280;21556;55.782;37.528;2024-03-02T01:37:41;101018.53;;;6.30;100.00
35435;BME280;21556;55.782;37.528;2024-03-02T01:40:08;101019.28;;;6.60;100.00
35435;BME280;21556;55.782;37.528;2024-03-02T01:42:36;101017.34;;;6.72;100.00
35435;BME280;21556;55.782;37.528;2024-03-02T01:45:06;101015.38;;;6.52;100.00
35435;BME280;21556;55.782;37.528;2024-03-02T01:47:33;101019.69;;;6.51;100.00
35435;BME280;21556;55.782;37.528;2024-03-02T01:50:00;101015.63;;;6.73;100.00
35435;BME280;21556;55.782;37.528;2024-03-02T01:52:27;101015.38;;;6.52;100.00
35435;BME280;21556;55.782;37.528;2024-03-02T01:54:53;101017.56;;;6.44;100.00
35435;BME280;21556;55.782;37.528;2024-03-02T01:57:19;101009.81;;;6.46;100.00
35435;BME280;21556;55.782;37.528;2024-03-02T01:59:46;101014.00;;;6.59;100.00
35435;BME280;21556;55.782;37.528;2024-03-02T02:02:14;101013.00;;;6.57;100.00
35435;BME280;21556;55.782;37.528;2024-03-02T02:04:41;101019.94;;;6.89;100.00
35435;BME280;21556;55.782;37.528;2024-03-02T02:07:07;101027.69;;;6.71;100.00
35435;BME280;21556;55.782;37.528;2024-03-02T02:09:33;101023.22;;;6.68;100.00
35435;BME280;21556;55.782;37.528;2024-03-02T02:12:02;101028.50;;;6.54;100.00
35435;BME280;21556;55.782;37.528;2024-03-02T02:14:31;101028.34;;;6.83;100.00
35435;BME280;21556;55.782;37.528;2024-03-02T02:16:58;101023.69;;;6.94;100.00
35435;BME280;21556;55.782;37.528;2024-03-02T02:19:24;101024.97;;;6.86;100.00
35435;BME280;21556;55.782;37.528;2024-03-02T02:21:50;101020.50;;;6.99;100.00
35435;BME280;21556;55.782;37.528;2024-03-02T02:24:19;101024.28;;;6.72;100.00
35435;BME280;21556;55.782;37.528;2024-03-02T02:26:47;101020.16;;;6.93;100.00
35435;BME280;21556;55.782;37.528;2024-03-02T02:29:13;101030.06;;;6.50;100.00
35435;BME280;21556;55.782;37.528;2024-03-02T02:31:40;101031.84;;;6.67;100.00
35435;BME280;21556;55.782;37.528;2024-03-02T02:34:07;101035.78;;;6.75;100.00
35435;BME280;21556;55.782;37.528;2024-03-02T02:36:37;101039.91;;;6.88;100.00
35435;BME280;21556;55.782;37.528;2024-03-02T02:39:05;101032.00;;;6.87;100.00
35435;BME280;21556;55.782;37.528;2024-03-02T02:41:32;101038.75;;;6.99;100.00
35435;BME280;21556;55.782;37.528;2024-03-02T02:43:58;101045.59;;;6.48;100.00
35435;BME280;21556;55.782;37.528;2024-03-02T02:46:24;101037.81;;;6.65;100.00
35435;BME280;21556;55.782;37.528;2024-03-02T02:48:50;101043.75;;;6.62;100.00
35435;BME280;21556;55.782;37.528;2024-03-02T02:51:18;101036.00;;;6.64;100.00
35435;BME280;21556;55.782;37.528;2024-03-02T02:53:44;101033.16;;;6.59;100.00
35435;BME280;21556;55.782;37.528;2024-03-02T02:56:11;101042.66;;;6.42;100.00
35435;BME280;21556;55.782;37.528;2024-03-02T02:58:37;101034.47;;;6.84;100.00
35435;BME280;21556;55.782;37.528;2024-03-02T03:01:03;101032.72;;;6.68;100.00
35435;BME280;21556;55.782;37.528;2024-03-02T03:03:29;101032.16;;;6.57;100.00
35435;BME280;21556;55.782;37.528;2024-03-02T03:05:55;101039.50;;;6.48;100.00
35435;BME280;21556;55.782;37.528;2024-03-02T03:08:21;101042.81;;;6.45;100.00
35435;BME280;21556;55.782;37.528;2024-03-02T03:10:49;101043.25;;;6.69;100.00
35435;BME280;21556;55.782;37.528;2024-03-02T03:13:15;101051.63;;;6.96;100.00
35435;BME280;21556;55.782;37.528;2024-03-02T03:15:41;101049.31;;;6.68;100.00
35435;BME280;21556;55.782;37.528;2024-03-02T03:18:07;101056.03;;;6.48;100.00
35435;BME280;21556;55.782;37.528;2024-03-02T03:20:33;101053.34;;;6.63;100.00
35435;BME280;21556;55.782;37.528;2024-03-02T03:23:01;101055.38;;;6.36;100.00
35435;BME280;21556;55.782;37.528;2024-03-02T03:25:30;101048.50;;;6.22;100.00
35435;BME280;21556;55.782;37.528;2024-03-02T03:27:56;101050.88;;;6.17;100.00
35435;BME280;21556;55.782;37.528;2024-03-02T03:30:23;101047.25;;;6.15;100.00
35435;BME280;21556;55.782;37.528;2024-03-02T03:32:49;101042.56;;;5.93;100.00
35435;BME280;21556;55.782;37.528;2024-03-02T03:35:15;101044.84;;;6.18;100.00
35435;BME280;21556;55.782;37.528;2024-03-02T03:37:41;101041.53;;;6.37;100.00
35435;BME280;21556;55.782;37.528;2024-03-02T03:40:11;101035.19;;;6.48;100.00
35435;BME280;21556;55.782;37.528;2024-03-02T03:42:38;101036.84;;;6.32;100.00
35435;BME280;21556;55.782;37.528;2024-03-02T03:45:07;101034.78;;;6.10;100.00
35435;BME280;21556;55.782;37.528;2024-03-02T03:47:34;101037.59;;;6.29;100.00
35435;BME280;21556;55.782;37.528;2024-03-02T03:50:00;101034.59;;;6.38;100.00
35435;BME280;21556;55.782;37.528;2024-03-02T03:52:26;101037.63;;;6.45;100.00
35435;BME280;21556;55.782;37.528;2024-03-02T03:54:52;101033.00;;;6.09;100.00
35435;BME280;21556;55.782;37.528;2024-03-02T03:57:18;101026.00;;;6.24;100.00
35435;BME280;21556;55.782;37.528;2024-03-02T03:59:47;101033.34;;;6.31;100.00
35435;BME280;21556;55.782;37.528;2024-03-02T04:02:13;101027.00;;;6.26;100.00
35435;BME280;21556;55.782;37.528;2024-03-02T04:04:39;101027.50;;;6.35;100.00
35435;BME280;21556;55.782;37.528;2024-03-02T04:07:07;101024.63;;;6.14;100.00
35435;BME280;21556;55.782;37.528;2024-03-02T04:09:34;101025.41;;;6.13;100.00
35435;BME280;21556;55.782;37.528;2024-03-02T04:12:01;101035.72;;;6.26;100.00
35435;BME280;21556;55.782;37.528;2024-03-02T04:14:27;101034.09;;;5.83;100.00
35435;BME280;21556;55.782;37.528;2024-03-02T04:16:53;101039.75;;;5.90;100.00
35435;BME280;21556;55.782;37.528;2024-03-02T04:19:19;101039.56;;;6.33;100.00
35435;BME280;21556;55.782;37.528;2024-03-02T04:21:45;101040.84;;;5.94;100.00
35435;BME280;21556;55.782;37.528;2024-03-02T04:24:11;101031.53;;;6.61;100.00
35435;BME280;21556;55.782;37.528;2024-03-02T04:26:37;101037.91;;;6.19;100.00
35435;BME280;21556;55.782;37.528;2024-03-02T04:29:03;101035.72;;;5.95;100.00
35435;BME280;21556;55.782;37.528;2024-03-02T04:31:29;101037.78;;;5.86;100.00
35435;BME280;21556;55.782;37.528;2024-03-02T04:33:56;101036.19;;;6.19;100.00
35435;BME280;21556;55.782;37.528;2024-03-02T04:36:22;101039.03;;;6.24;100.00
35435;BME280;21556;55.782;37.528;2024-03-02T04:38:49;101036.25;;;6.05;100.00
35435;BME280;21556;55.782;37.528;2024-03-02T04:41:15;101043.66;;;6.44;100.00
35435;BME280;21556;55.782;37.528;2024-03-02T04:43:41;101036.00;;;6.47;100.00
35435;BME280;21556;55.782;37.528;2024-03-02T04:46:08;101038.44;;;6.13;100.00
35435;BME280;21556;55.782;37.528;2024-03-02T04:48:34;101034.16;;;6.14;100.00
35435;BME280;21556;55.782;37.528;2024-03-02T04:51:00;101038.91;;;6.21;100.00
35435;BME280;21556;55.782;37.528;2024-03-02T04:53:26;101040.88;;;6.41;100.00
35435;BME280;21556;55.782;37.528;2024-03-02T04:55:52;101036.25;;;6.36;100.00
35435;BME280;21556;55.782;37.528;2024-03-02T04:58:44;101042.00;;;5.84;100.00
35435;BME280;21556;55.782;37.528;2024-03-02T05:01:10;101039.75;;;6.05;100.00
35435;BME280;21556;55.782;37.528;2024-03-02T05:03:38;101038.91;;;6.21;100.00
35435;BME280;21556;55.782;37.528;2024-03-02T05:06:07;101037.13;;;5.90;100.00
35435;BME280;21556;55.782;37.528;2024-03-02T05:08:36;101039.66;;;5.89;100.00
35435;BME280;21556;55.782;37.528;2024-03-02T05:11:02;101035.84;;;5.67;100.00
35435;BME280;21556;55.782;37.528;2024-03-02T05:13:47;101035.81;;;5.97;100.00
35435;BME280;21556;55.782;37.528;2024-03-02T05:16:13;101028.88;;;5.97;100.00
35435;BME280;21556;55.782;37.528;2024-03-02T05:18:39;101030.22;;;5.91;100.00
35435;BME280;21556;55.782;37.528;2024-03-02T05:21:05;101022.84;;;5.98;100.00
35435;BME280;21556;55.782;37.528;2024-03-02T05:23:31;101019.78;;;5.91;100.00
35435;BME280;21556;55.782;37.528;2024-03-02T05:25:57;101035.34;;;5.89;100.00
35435;BME280;21556;55.782;37.528;2024-03-02T05:28:24;101035.56;;;5.92;100.00
35435;BME280;21556;55.782;37.528;2024-03-02T05:30:50;101032.50;;;5.99;100.00
35435;BME280;21556;55.782;37.528;2024-03-02T05:33:16;101037.00;;;5.58;100.00
35435;BME280;21556;55.782;37.528;2024-03-02T05:35:44;101042.91;;;5.70;100.00
35435;BME280;21556;55.782;37.528;2024-03-02T05:38:10;101039.25;;;5.81;100.00
35435;BME280;21556;55.782;37.528;2024-03-02T05:40:36;101040.56;;;5.89;100.00
35435;BME280;21556;55.782;37.528;2024-03-02T05:43:03;101051.81;;;6.19;100.00
35435;BME280;21556;55.782;37.528;2024-03-02T05:45:29;101049.34;;;5.91;100.00
35435;BME280;21556;55.782;37.528;2024-03-02T05:47:58;101044.13;;;6.37;100.00
35435;BME280;21556;55.782;37.528;2024-03-02T05:50:26;101043.31;;;6.38;100.00
35435;BME280;21556;55.782;37.528;2024-03-02T05:52:55;101044.59;;;6.30;100.00
35435;BME280;21556;55.782;37.528;2024-03-02T05:55:22;101055.56;;;6.24;100.00
35435;BME280;21556;55.782;37.528;2024-03-02T05:57:48;101045.22;;;5.95;100.00
35435;BME280;21556;55.782;37.528;2024-03-02T06:00:35;101045.53;;;5.99;100.00
35435;BME280;21556;55.782;37.528;2024-03-02T06:03:01;101057.09;;;6.36;100.00
35435;BME280;21556;55.782;37.528;2024-03-02T06:05:27;101060.16;;;6.29;100.00
35435;BME280;21556;55.782;37.528;2024-03-02T06:07:53;101054.78;;;6.25;100.00
35435;BME280;21556;55.782;37.528;2024-03-02T06:10:19;101055.19;;;6.02;100.00
35435;BME280;21556;55.782;37.528;2024-03-02T06:12:46;101056.44;;;6.40;100.00
35435;BME280;21556;55.782;37.528;2024-03-02T06:15:12;101060.19;;;6.45;100.00
35435;BME280;21556;55.782;37.528;2024-03-02T06:17:38;101056.56;;;6.26;100.00
35435;BME280;21556;55.782;37.528;2024-03-02T06:20:05;101050.72;;;6.31;100.00
35435;BME280;21556;55.782;37.528;2024-03-02T06:22:34;101059.34;;;6.30;100.00
35435;BME280;21556;55.782;37.528;2024-03-02T06:25:00;101057.94;;;6.20;100.00
35435;BME280;21556;55.782;37.528;2024-03-02T06:27:26;101065.06;;;6.39;100.00
35435;BME280;21556;55.782;37.528;2024-03-02T06:29:52;101060.78;;;5.93;100.00
35435;BME280;21556;55.782;37.528;2024-03-02T06:32:19;101061.53;;;6.22;100.00
35435;BME280;21556;55.782;37.528;2024-03-02T06:34:45;101057.28;;;6.24;100.00
35435;BME280;21556;55.782;37.528;2024-03-02T06:37:11;101052.84;;;5.92;100.00
35435;BME280;21556;55.782;37.528;2024-03-02T06:39:37;101055.38;;;6.05;100.00
35435;BME280;21556;55.782;37.528;2024-03-02T06:42:03;101058.63;;;6.01;100.00
35435;BME280;21556;55.782;37.528;2024-03-02T06:44:29;101054.72;;;5.63;100.00
35435;BME280;21556;55.782;37.528;2024-03-02T06:46:55;101054.88;;;5.96;100.00
35435;BME280;21556;55.782;37.528;2024-03-02T06:49:22;101050.75;;;6.16;100.00
35435;BME280;21556;55.782;37.528;2024-03-02T06:51:48;101052.78;;;6.53;100.00
35435;BME280;21556;55.782;37.528;2024-03-02T06:54:21;101058.63;;;6.32;100.00
35435;BME280;21556;55.782;37.528;2024-03-02T06:56:48;101063.44;;;6.10;100.00
35435;BME280;21556;55.782;37.528;2024-03-02T06:59:14;101067.41;;;6.34;100.00
35435;BME280;21556;55.782;37.528;2024-03-02T07:01:40;101062.28;;;5.90;100.00
35435;BME280;21556;55.782;37.528;2024-03-02T07:04:09;101066.06;;;5.80;100.00
35435;BME280;21556;55.782;37.528;2024-03-02T07:06:35;101058.97;;;6.07;100.00
35435;BME280;21556;55.782;37.528;2024-03-02T07:09:01;101065.06;;;6.08;100.00
35435;BME280;21556;55.782;37.528;2024-03-02T07:11:28;101064.59;;;6.15;100.00
35435;BME280;21556;55.782;37.528;2024-03-02T07:13:56;101061.19;;;6.16;100.00
35435;BME280;21556;55.782;37.528;2024-03-02T07:16:22;101069.28;;;5.91;100.00
35435;BME280;21556;55.782;37.528;2024-03-02T07:18:54;101064.84;;;6.19;100.00
35435;BME280;21556;55.782;37.528;2024-03-02T07:21:22;101065.84;;;6.21;100.00
35435;BME280;21556;55.782;37.528;2024-03-02T07:23:48;101069.75;;;5.84;100.00
35435;BME280;21556;55.782;37.528;2024-03-02T07:26:14;101070.97;;;6.20;100.00
35435;BME280;21556;55.782;37.528;2024-03-02T07:28:42;101065.06;;;6.08;100.00
35435;BME280;21556;55.782;37.528;2024-03-02T07:31:09;101070.50;;;5.96;100.00
35435;BME280;21556;55.782;37.528;2024-03-02T07:33:35;101069.09;;;6.02;100.00
35435;BME280;21556;55.782;37.528;2024-03-02T07:36:01;101068.41;;;6.36;100.00
35435;BME280;21556;55.782;37.528;2024-03-02T07:38:28;101060.81;;;6.10;100.00
35435;BME280;21556;55.782;37.528;2024-03-02T07:40:55;101060.41;;;6.33;100.00
35435;BME280;21556;55.782;37.528;2024-03-02T07:43:21;101054.97;;;6.45;100.00
35435;BME280;21556;55.782;37.528;2024-03-02T07:45:48;101052.63;;;5.72;100.00
35435;BME280;21556;55.782;37.528;2024-03-02T07:48:15;101048.22;;;6.32;100.00
35435;BME280;21556;55.782;37.528;2024-03-02T07:50:41;101047.75;;;6.24;100.00
35435;BME280;21556;55.782;37.528;2024-03-02T07:53:09;101046.72;;;6.37;100.00
35435;BME280;21556;55.782;37.528;2024-03-02T07:55:35;101043.66;;;6.44;100.00
35435;BME280;21556;55.782;37.528;2024-03-02T08:01:11;101046.91;;;6.09;100.00
35435;BME280;21556;55.782;37.528;2024-03-02T08:03:37;101044.00;;;6.19;100.00
35435;BME280;21556;55.782;37.528;2024-03-02T08:06:04;101053.53;;;6.50;100.00
35435;BME280;21556;55.782;37.528;2024-03-02T08:08:30;101053.84;;;6.40;100.00
35435;BME280;21556;55.782;37.528;2024-03-02T08:10:56;101042.06;;;6.32;100.00
35435;BME280;21556;55.782;37.528;2024-03-02T08:13:25;101044.34;;;6.25;100.00
35435;BME280;21556;55.782;37.528;2024-03-02T08:15:51;101040.91;;;6.10;100.00
35435;BME280;21556;55.782;37.528;2024-03-02T08:18:18;101038.78;;;6.19;100.00
35435;BME280;21556;55.782;37.528;2024-03-02T08:20:44;101041.59;;;6.39;100.00
35435;BME280;21556;55.782;37.528;2024-03-02T08:23:10;101041.38;;;6.67;100.00
35435;BME280;21556;55.782;37.528;2024-03-02T08:25:55;101050.66;;;6.45;100.00
35435;BME280;21556;55.782;37.528;2024-03-02T08:28:22;101053.00;;;6.41;100.00
35435;BME280;21556;55.782;37.528;2024-03-02T08:30:48;101052.66;;;6.35;100.00
35435;BME280;21556;55.782;37.528;2024-03-02T08:33:14;101048.78;;;6.43;100.00
35435;BME280;21556;55.782;37.528;2024-03-02T08:36:00;101052.47;;;6.46;100.00
35435;BME280;21556;55.782;37.528;2024-03-02T08:38:27;101046.75;;;6.70;100.00
35435;BME280;21556;55.782;37.528;2024-03-02T08:40:53;101044.31;;;7.06;100.00
35435;BME280;21556;55.782;37.528;2024-03-02T08:43:21;101044.09;;;6.68;100.00
35435;BME280;21556;55.782;37.528;2024-03-02T08:45:48;101046.69;;;6.68;100.00
35435;BME280;21556;55.782;37.528;2024-03-02T08:48:18;101043.00;;;6.81;100.00
35435;BME280;21556;55.782;37.528;2024-03-02T08:50:44;101039.84;;;6.87;100.00
35435;BME280;21556;55.782;37.528;2024-03-02T08:53:10;101042.50;;;6.56;100.00
35435;BME280;21556;55.782;37.528;2024-03-02T08:55:36;101049.34;;;7.03;100.00
35435;BME280;21556;55.782;37.528;2024-03-02T08:58:02;101042.13;;;7.31;100.00
35435;BME280;21556;55.782;37.528;2024-03-02T09:00:28;101041.38;;;7.68;100.00
35435;BME280;21556;55.782;37.528;2024-03-02T09:03:13;101047.56;;;7.02;100.00
35435;BME280;21556;55.782;37.528;2024-03-02T09:05:40;101042.28;;;7.34;100.00
35435;BME280;21556;55.782;37.528;2024-03-02T09:08:06;101045.09;;;7.73;100.00
35435;BME280;21556;55.782;37.528;2024-03-02T09:10:33;101037.97;;;7.18;100.00
35435;BME280;21556;55.782;37.528;2024-03-02T09:12:59;101032.19;;;7.76;100.00
35435;BME280;21556;55.782;37.528;2024-03-02T09:15:25;101030.59;;;7.10;100.00
35435;BME280;21556;55.782;37.528;2024-03-02T09:17:51;101037.31;;;6.88;100.00
35435;BME280;21556;55.782;37.528;2024-03-02T09:20:17;101024.38;;;7.08;100.00
35435;BME280;21556;55.782;37.528;2024-03-02T09:22:48;101025.75;;;7.34;100.00
35435;BME280;21556;55.782;37.528;2024-03-02T09:25:15;101027.91;;;7.42;100.00
35435;BME280;21556;55.782;37.528;2024-03-02T09:27:42;101028.09;;;7.29;100.00
35435;BME280;21556;55.782;37.528;2024-03-02T09:30:08;101024.84;;;7.51;100.00
35435;BME280;21556;55.782;37.528;2024-03-02T09:32:38;101016.31;;;7.03;100.00
35435;BME280;21556;55.782;37.528;2024-03-02T09:35:04;101018.28;;;7.07;100.00
35435;BME280;21556;55.782;37.528;2024-03-02T09:37:31;101016.72;;;7.45;100.00
35435;BME280;21556;55.782;37.528;2024-03-02T09:39:57;101026.50;;;7.49;100.00
35435;BME280;21556;55.782;37.528;2024-03-02T09:42:24;101020.63;;;7.19;100.00
35435;BME280;21556;55.782;37.528;2024-03-02T09:44:50;101019.56;;;7.50;100.00
35435;BME280;21556;55.782;37.528;2024-03-02T09:47:17;101017.03;;;7.17;100.00
35435;BME280;21556;55.782;37.528;2024-03-02T09:49:43;101023.28;;;6.86;100.00
35435;BME280;21556;55.782;37.528;2024-03-02T09:52:13;101013.75;;;7.37;100.00
35435;BME280;21556;55.782;37.528;2024-03-02T09:54:40;101008.50;;;7.37;100.00
35435;BME280;21556;55.782;37.528;2024-03-02T09:57:09;101006.66;;;7.53;100.00
35435;BME280;21556;55.782;37.528;2024-03-02T09:59:35;101010.94;;;7.16;100.00
35435;BME280;21556;55.782;37.528;2024-03-02T10:02:02;101016.63;;;7.43;100.00
35435;BME280;21556;55.782;37.528;2024-03-02T10:04:30;101020.50;;;6.99;100.00
35435;BME280;21556;55.782;37.528;2024-03-02T10:07:10;101011.44;;;6.93;100.00
35435;BME280;21556;55.782;37.528;2024-03-02T10:09:40;101018.78;;;7.00;100.00
35435;BME280;21556;55.782;37.528;2024-03-02T10:12:08;101021.50;;;7.71;100.00
35435;BME280;21556;55.782;37.528;2024-03-02T10:14:34;101013.47;;;7.67;100.00
35435;BME280;21556;55.782;37.528;2024-03-02T10:17:10;101015.69;;;7.41;100.00
35435;BME280;21556;55.782;37.528;2024-03-02T10:19:37;101019.88;;;7.56;100.00
35435;BME280;21556;55.782;37.528;2024-03-02T10:22:06;101013.28;;;7.46;100.00
35435;BME280;21556;55.782;37.528;2024-03-02T10:24:39;101022.75;;;7.62;100.00
35435;BME280;21556;55.782;37.528;2024-03-02T10:27:17;101023.63;;;7.27;100.00
35435;BME280;21556;55.782;37.528;2024-03-02T10:29:46;101028.81;;;6.92;100.00
35435;BME280;21556;55.782;37.528;2024-03-02T10:32:12;101020.16;;;6.93;100.00
35435;BME280;21556;55.782;37.528;2024-03-02T10:34:44;101030.25;;;7.20;100.00
35435;BME280;21556;55.782;37.528;2024-03-02T10:37:11;101024.56;;;7.45;100.00
35435;BME280;21556;55.782;37.528;2024-03-02T10:39:37;101028.72;;;7.07;100.00
35435;BME280;21556;55.782;37.528;2024-03-02T10:42:11;101031.97;;;7.71;100.00
35435;BME280;21556;55.782;37.528;2024-03-02T10:44:41;101025.44;;;7.11;100.00
35435;BME280;21556;55.782;37.528;2024-03-02T10:47:08;101032.25;;;7.60;100.00
35435;BME280;21556;55.782;37.528;2024-03-02T10:49:41;101044.06;;;6.85;100.00
35435;BME280;21556;55.782;37.528;2024-03-02T10:52:08;101038.97;;;7.20;100.00
35435;BME280;21556;55.782;37.528;2024-03-02T10:54:35;101037.56;;;7.27;100.00
35435;BME280;21556;55.782;37.528;2024-03-02T10:57:07;101030.53;;;7.26;100.00
35435;BME280;21556;55.782;37.528;2024-03-02T10:59:36;101035.66;;;7.41;100.00
35435;BME280;21556;55.782;37.528;2024-03-02T11:02:06;101033.47;;;7.66;100.00
35435;BME280;21556;55.782;37.528;2024-03-02T11:04:37;101040.19;;;7.27;100.00
35435;BME280;21556;55.782;37.528;2024-03-02T11:07:09;101034.72;;;7.22;100.00
35435;BME280;21556;55.782;37.528;2024-03-02T11:09:53;101032.13;;;7.40;100.00
35435;BME280;21556;55.782;37.528;2024-03-02T11:12:27;101029.75;;;7.27;100.00
35435;BME280;21556;55.782;37.528;2024-03-02T11:14:55;101033.53;;;6.99;100.00
35435;BME280;21556;55.782;37.528;2024-03-02T11:17:23;101021.06;;;7.44;100.00
35435;BME280;21556;55.782;37.528;2024-03-02T11:19:58;101025.50;;;7.47;100.00
35435;BME280;21556;55.782;37.528;2024-03-02T11:22:25;101026.06;;;7.58;100.00
35435;BME280;21556;55.782;37.528;2024-03-02T11:24:52;101022.09;;;7.84;100.00
35435;BME280;21556;55.782;37.528;2024-03-02T11:33:00;101026.00;;;7.74;100.00
35435;BME280;21556;55.782;37.528;2024-03-02T11:35:31;101024.84;;;7.51;100.00
35435;BME280;21556;55.782;37.528;2024-03-02T11:37:57;101022.69;;;7.60;100.00
35435;BME280;21556;55.782;37.528;2024-03-02T11:40:26;101020.00;;;7.59;100.00
35435;BME280;21556;55.782;37.528;2024-03-02T11:42:53;101017.41;;;7.41;100.00
35435;BME280;21556;55.782;37.528;2024-03-02T11:45:23;101010.97;;;7.88;100.00
35435;BME280;21556;55.782;37.528;2024-03-02T11:47:50;101009.81;;;7.81;100.00
35435;BME280;21556;55.782;37.528;2024-03-02T11:50:36;101003.06;;;7.86;100.00
35435;BME280;21556;55.782;37.528;2024-03-02T11:53:07;101008.81;;;7.61;100.00
35435;BME280;21556;55.782;37.528;2024-03-02T11:55:38;101003.69;;;7.63;100.00
35435;BME280;21556;55.782;37.528;2024-03-02T11:58:15;101016.06;;;7.67;100.00
35435;BME280;21556;55.782;37.528;2024-03-02T12:00:46;101010.53;;;7.61;100.00
35435;BME280;21556;55.782;37.528;2024-03-02T12:03:13;101006.19;;;7.43;100.00
35435;BME280;21556;55.782;37.528;2024-03-02T12:05:40;101003.16;;;7.52;100.00
35435;BME280;21556;55.782;37.528;2024-03-02T12:08:08;101005.59;;;7.49;100.00
35435;BME280;21556;55.782;37.528;2024-03-02T12:10:35;101001.34;;;7.51;100.00
35435;BME280;21556;55.782;37.528;2024-03-02T12:13:06;101005.44;;;7.28;100.00
35435;BME280;21556;55.782;37.528;2024-03-02T12:15:34;100997.22;;;7.04;100.00
35435;BME280;21556;55.782;37.528;2024-03-02T12:18:03;101005.97;;;7.05;100.00
35435;BME280;21556;55.782;37.528;2024-03-02T12:20:31;100996.34;;;7.04;100.00
35435;BME280;21556;55.782;37.528;2024-03-02T12:23:02;101009.22;;;7.00;100.00
35435;BME280;21556;55.782;37.528;2024-03-02T12:25:30;101017.84;;;6.65;100.00
35435;BME280;21556;55.782;37.528;2024-03-02T12:27:59;101009.78;;;7.11;100.00
35435;BME280;21556;55.782;37.528;2024-03-02T12:30:35;101006.53;;;7.15;100.00
35435;BME280;21556;55.782;37.528;2024-03-02T12:33:04;101006.38;;;6.96;100.00
35435;BME280;21556;55.782;37.528;2024-03-02T12:35:31;101011.88;;;7.18;100.00
35435;BME280;21556;55.782;37.528;2024-03-02T12:37:57;101014.25;;;6.80;100.00
35435;BME280;21556;55.782;37.528;2024-03-02T12:40:24;101007.53;;;7.01;100.00
35435;BME280;21556;55.782;37.528;2024-03-02T12:42:50;101009.50;;;7.05;100.00
35435;BME280;21556;55.782;37.528;2024-03-02T12:45:17;101012.94;;;7.22;100.00
35435;BME280;21556;55.782;37.528;2024-03-02T12:47:50;101003.28;;;7.03;100.00
35435;BME280;21556;55.782;37.528;2024-03-02T12:50:17;101010.53;;;6.92;100.00
35435;BME280;21556;55.782;37.528;2024-03-02T12:52:43;101007.34;;;7.14;100.00
35435;BME280;21556;55.782;37.528;2024-03-02T12:55:10;101005.06;;;7.38;100.00